Matlock, WA

4:33 AM PDT on March 30, 2015 (GMT -0700)
Downtown Elma | | Change Station
CLOSE
Current Station
Personal Weather Station
Location: Elma, WA
Elevation: 59 ft
Nearby Weather Stations

Elev 59 ft 47.01 °N, 123.41 °W | Updated 3 minutes ago

Overcast
Overcast
52.5 °F
Feels Like 52.5 °F
N
0.0
Wind Variable Wind from North
Gusts 0.0 mph

Today
High -- | Low -- °F
--% Chance of Precip.
Yesterday
High -- | Low -- °F
Precip. -- in
6:57 AM 7:40 PM
Waxing Gibbous, 79% visible
Pressure 30.10 in
Visibility 10.0 miles
Clouds Few 1100 ft
Overcast 2000 ft
Dew Point 52 °F
Humidity 99%
Rainfall 0.00 in
Snow Depth Not available.
UV 0 out of 12
Pollen 9.10 out of 12
Air Quality Not available.
Flu Activity Not available.
METAR KSHN 301053Z AUTO 21005KT 10SM FEW011 OVC020 11/09 A3010 RMK AO2 SLP193 T01110094

More Conditions Fewer Conditions

Pressure 30.10 in
Visibility 10.0 miles
Clouds Few 1100 ft
Overcast 2000 ft
Dew Point 52 °F
Humidity 99%
Rainfall 0.00 in
Snow Depth Not available.
UV 0 out of 12
Pollen 9.10 out of 12
Air Quality Not available.
Flu Activity Not available.
METAR KSHN 301053Z AUTO 21005KT 10SM FEW011 OVC020 11/09 A3010 RMK AO2 SLP193 T01110094

More Conditions Fewer Conditions

10-Day Weather Forecast

Almanac

Astronomy

Mar. 30, 2015 Rise Set
Actual Time
Civil Twilight
Nautical Twilight
Astronomical Twilight
Moon
Length of Visible Light
Length of Day
Tomorrow will be .
, % of the Moon is Illuminated

Today's Extremes

State Highs State Lows

Community

WunderPhotos

Upload Photos

1,809,457 photos uploaded!

WunderBlogs® & News

Nearby

Air Quality

  Air Quality AQ Index Pollutant
Not available.

Snow Depth

Station Depth Elevation

Earthquake Activity

City Distance Mag. Time & Date
Minimum magnitude displayed is 2.5.

Coastal Water Temperatures

Place Temperature

Stations

Nearby Weather Stations

Station Location Temp. Windchill Dew Point Humidity Wind Precip. Elev Updated Type